createdAt,value
2023-04-29T00:01:12.352Z,19.14
2023-04-29T00:03:40.814Z,19.12
2023-04-29T00:06:11.705Z,19.15
2023-04-29T00:08:40.929Z,19.16
2023-04-29T00:11:11.479Z,19.13
2023-04-29T00:13:41.245Z,19.11
2023-04-29T00:16:10.554Z,19.10
2023-04-29T00:18:39.075Z,19.09
2023-04-29T00:21:08.172Z,19.12
2023-04-29T00:23:36.668Z,19.13
2023-04-29T00:26:05.668Z,19.09
2023-04-29T00:28:34.179Z,19.14
2023-04-29T00:31:03.096Z,19.16
2023-04-29T00:33:31.822Z,19.16
2023-04-29T00:36:00.688Z,19.17
2023-04-29T00:38:29.356Z,19.12
2023-04-29T00:40:58.170Z,19.12
2023-04-29T00:43:26.617Z,19.14
2023-04-29T00:45:55.632Z,19.16
2023-04-29T00:48:24.141Z,19.16
2023-04-29T00:50:53.383Z,19.14
2023-04-29T00:53:23.489Z,19.14
2023-04-29T00:55:52.598Z,19.14
2023-04-29T00:58:22.401Z,19.14
2023-04-29T01:00:51.192Z,19.13
2023-04-29T01:03:19.702Z,19.14
2023-04-29T01:05:48.592Z,19.13
2023-04-29T01:08:48.386Z,19.15
2023-04-29T01:11:17.199Z,19.15
2023-04-29T01:13:55.640Z,19.13
2023-04-29T01:16:30.062Z,19.14
2023-04-29T01:19:07.659Z,19.14
2023-04-29T01:21:49.171Z,19.16
2023-04-29T01:24:17.697Z,19.11
2023-04-29T01:26:59.696Z,19.14
2023-04-29T01:30:13.579Z,19.14
2023-04-29T01:33:30.928Z,19.16
2023-04-29T01:36:02.859Z,19.14
2023-04-29T01:38:42.265Z,19.14
2023-04-29T01:41:43.809Z,19.16
2023-04-29T01:44:22.560Z,19.14
2023-04-29T01:46:54.676Z,19.16
2023-04-29T01:49:30.061Z,19.11
2023-04-29T01:51:58.629Z,19.14
2023-04-29T01:54:27.881Z,19.16
2023-04-29T01:56:59.169Z,19.15
2023-04-29T01:59:32.551Z,19.12
2023-04-29T02:02:15.673Z,19.13
2023-04-29T02:04:54.355Z,19.10
2023-04-29T02:07:23.000Z,19.13
2023-04-29T02:09:52.138Z,19.13
2023-04-29T02:12:21.365Z,19.11
2023-04-29T02:14:53.995Z,19.11
2023-04-29T02:17:22.629Z,19.11
2023-04-29T02:19:51.675Z,19.10
2023-04-29T02:22:20.635Z,19.11
2023-04-29T02:24:49.473Z,19.06
2023-04-29T02:27:18.333Z,19.06
2023-04-29T02:29:47.433Z,19.08
2023-04-29T02:32:16.136Z,19.10
2023-04-29T02:34:45.661Z,19.09
2023-04-29T02:37:14.387Z,19.09
2023-04-29T02:39:43.403Z,19.08
2023-04-29T02:42:14.096Z,19.10
2023-04-29T02:44:42.875Z,19.08
2023-04-29T02:47:11.455Z,19.09
2023-04-29T02:49:40.637Z,19.09
2023-04-29T02:52:09.297Z,19.08
2023-04-29T02:54:38.547Z,19.10
2023-04-29T02:57:08.141Z,19.10
2023-04-29T02:59:37.197Z,19.08
2023-04-29T03:02:05.724Z,19.07
2023-04-29T03:04:34.633Z,19.09
2023-04-29T03:07:03.155Z,19.05
2023-04-29T03:09:32.176Z,19.08
2023-04-29T03:12:01.617Z,19.08
2023-04-29T03:14:30.472Z,19.10
2023-04-29T03:17:00.386Z,19.06
2023-04-29T03:19:29.635Z,19.07
2023-04-29T03:21:58.167Z,19.07
2023-04-29T03:24:27.481Z,19.09
2023-04-29T03:26:56.227Z,19.09
2023-04-29T03:29:25.218Z,19.08
2023-04-29T03:31:54.690Z,19.06
2023-04-29T03:34:23.783Z,19.07
2023-04-29T03:37:06.320Z,19.07
2023-04-29T03:39:35.196Z,19.06
2023-04-29T03:42:04.800Z,19.05
2023-04-29T03:44:33.660Z,19.04
2023-04-29T03:47:02.172Z,19.01
2023-04-29T03:49:31.135Z,18.97
2023-04-29T03:51:59.633Z,19.02
2023-04-29T03:54:28.412Z,19.03
2023-04-29T03:56:56.932Z,19.00
2023-04-29T03:59:26.447Z,19.01
2023-04-29T04:01:55.054Z,19.04
2023-04-29T04:04:24.340Z,18.99
2023-04-29T04:06:53.061Z,19.02
2023-04-29T04:09:26.414Z,19.01
2023-04-29T04:11:54.875Z,19.01
2023-04-29T04:14:23.726Z,19.03
2023-04-29T04:16:52.441Z,19.02
2023-04-29T04:19:21.374Z,19.01
2023-04-29T04:21:49.801Z,19.00
2023-04-29T04:24:20.103Z,18.98
2023-04-29T04:26:49.534Z,19.00
2023-04-29T04:29:29.477Z,18.83
2023-04-29T04:32:01.341Z,18.73
2023-04-29T04:34:31.752Z,18.66
2023-04-29T04:37:02.305Z,18.60
2023-04-29T04:39:34.353Z,18.55
2023-04-29T04:42:03.986Z,18.52
2023-04-29T04:44:34.883Z,18.45
2023-04-29T04:47:08.521Z,18.46
2023-04-29T04:49:53.355Z,18.42
2023-04-29T04:52:23.941Z,18.39
2023-04-29T04:55:04.512Z,18.42
2023-04-29T04:57:36.880Z,18.32
2023-04-29T05:00:07.131Z,18.19
2023-04-29T05:02:36.216Z,18.29
2023-04-29T05:05:05.952Z,18.25
2023-04-29T05:07:37.566Z,18.18
2023-04-29T05:10:08.796Z,18.13
2023-04-29T05:12:45.060Z,18.14
2023-04-29T05:15:15.209Z,18.05
2023-04-29T05:17:45.633Z,18.09
2023-04-29T05:20:14.694Z,18.16
2023-04-29T05:22:43.171Z,18.20
2023-04-29T05:25:11.932Z,18.22
2023-04-29T05:27:40.669Z,18.17
2023-04-29T05:30:13.753Z,18.23
2023-04-29T05:32:42.253Z,18.37
2023-04-29T05:35:15.860Z,18.40
2023-04-29T05:37:45.478Z,18.42
2023-04-29T05:40:26.133Z,18.43
2023-04-29T05:43:02.117Z,18.53
2023-04-29T05:45:30.960Z,18.56
2023-04-29T05:47:59.444Z,18.39
2023-04-29T05:50:28.201Z,18.40
2023-04-29T05:52:57.052Z,18.44
2023-04-29T05:55:27.598Z,18.48
2023-04-29T05:57:57.082Z,18.40
2023-04-29T06:00:26.000Z,18.30
2023-04-29T06:03:00.481Z,18.31
2023-04-29T06:05:30.340Z,18.21
2023-04-29T06:08:19.862Z,18.18
2023-04-29T06:10:52.711Z,18.18
2023-04-29T06:13:21.674Z,18.21
2023-04-29T06:15:51.045Z,18.18
2023-04-29T06:18:21.286Z,18.19
2023-04-29T06:20:49.989Z,18.15
2023-04-29T06:23:18.619Z,18.25
2023-04-29T06:25:47.485Z,18.32
2023-04-29T06:28:16.700Z,18.42
2023-04-29T06:30:46.947Z,18.53
2023-04-29T06:33:16.065Z,18.49
2023-04-29T06:35:45.037Z,18.37
2023-04-29T06:38:24.217Z,18.24
2023-04-29T06:41:11.382Z,17.90
2023-04-29T06:44:05.924Z,17.88
2023-04-29T06:46:50.207Z,18.09
2023-04-29T06:49:29.353Z,18.16
2023-04-29T06:51:59.894Z,18.22
2023-04-29T06:54:28.910Z,18.23
2023-04-29T06:56:58.532Z,18.31
2023-04-29T06:59:27.055Z,18.40
2023-04-29T07:01:56.185Z,18.46
2023-04-29T07:04:24.951Z,18.51
2023-04-29T07:06:54.702Z,18.54
2023-04-29T07:09:23.982Z,18.53
2023-04-29T07:11:52.707Z,18.47
2023-04-29T07:14:23.176Z,18.50
2023-04-29T07:16:55.587Z,18.51
2023-04-29T07:19:24.043Z,18.53
2023-04-29T07:21:52.785Z,18.51
2023-04-29T07:24:21.251Z,18.49
2023-04-29T07:26:50.744Z,18.53
2023-04-29T07:29:19.477Z,18.52
2023-04-29T07:31:48.387Z,18.45
2023-04-29T07:34:17.045Z,18.50
2023-04-29T07:36:46.154Z,18.47
2023-04-29T07:39:15.753Z,18.47
2023-04-29T07:41:49.462Z,18.42
2023-04-29T07:44:17.861Z,18.32
2023-04-29T07:46:47.037Z,18.40
2023-04-29T07:49:15.687Z,18.43
2023-04-29T07:51:44.546Z,18.46
2023-04-29T07:54:13.078Z,18.44
2023-04-29T07:56:42.266Z,18.44
2023-04-29T07:59:10.843Z,18.44
2023-04-29T08:01:42.408Z,18.43
2023-04-29T08:04:11.036Z,18.45
2023-04-29T08:06:50.576Z,18.47
2023-04-29T08:09:18.974Z,18.42
2023-04-29T08:11:47.828Z,18.46
2023-04-29T08:14:16.419Z,18.40
2023-04-29T08:16:45.218Z,18.37
2023-04-29T08:19:13.751Z,18.21
2023-04-29T08:21:42.939Z,18.32
2023-04-29T08:24:11.492Z,18.39
2023-04-29T08:26:43.120Z,18.40
2023-04-29T08:29:11.549Z,18.44
2023-04-29T08:31:41.435Z,18.47
2023-04-29T08:34:09.907Z,18.38
2023-04-29T08:36:38.932Z,18.38
2023-04-29T08:39:07.282Z,18.39
2023-04-29T08:41:37.858Z,18.38
2023-04-29T08:44:06.380Z,18.31
2023-04-29T08:46:35.371Z,18.38
2023-04-29T08:49:04.538Z,18.24
2023-04-29T08:51:35.018Z,18.26
2023-04-29T08:54:03.500Z,18.39
2023-04-29T08:56:32.252Z,18.44
2023-04-29T08:59:02.103Z,18.30
2023-04-29T09:01:31.315Z,18.31
2023-04-29T09:04:10.664Z,18.50
2023-04-29T09:06:39.468Z,18.56
2023-04-29T09:09:08.000Z,18.55
2023-04-29T09:11:37.229Z,18.53
2023-04-29T09:14:05.812Z,18.50
2023-04-29T09:16:37.731Z,18.60
2023-04-29T09:19:06.369Z,18.67
2023-04-29T09:21:35.686Z,18.64
2023-04-29T09:24:04.436Z,18.61
2023-04-29T09:26:43.622Z,18.66
2023-04-29T09:29:16.329Z,18.58
2023-04-29T09:31:45.709Z,18.55
2023-04-29T09:34:14.768Z,18.61
2023-04-29T09:36:59.204Z,18.71
2023-04-29T09:39:27.695Z,18.79
2023-04-29T09:41:56.282Z,18.78
2023-04-29T09:44:36.127Z,18.74
2023-04-29T09:47:07.062Z,18.72
2023-04-29T09:49:41.440Z,18.75
2023-04-29T09:52:14.146Z,18.77
2023-04-29T09:54:43.651Z,18.72
2023-04-29T09:57:13.191Z,18.71
2023-04-29T09:59:42.222Z,18.72
2023-04-29T10:02:18.419Z,18.79
2023-04-29T10:04:57.957Z,18.79
2023-04-29T10:07:27.191Z,18.80
2023-04-29T10:09:55.626Z,18.89
2023-04-29T10:12:24.508Z,18.96
2023-04-29T10:15:04.302Z,19.04
2023-04-29T10:17:47.508Z,19.06
2023-04-29T10:20:22.898Z,19.07
2023-04-29T10:22:56.957Z,19.05
2023-04-29T10:25:28.473Z,19.05
2023-04-29T10:27:57.302Z,18.96
2023-04-29T10:30:25.810Z,18.91
2023-04-29T10:32:55.383Z,18.89
2023-04-29T10:35:25.921Z,19.00
2023-04-29T10:37:54.888Z,19.07
2023-04-29T10:40:43.060Z,19.16
2023-04-29T10:43:11.880Z,19.20
2023-04-29T10:45:41.004Z,18.66
2023-04-29T10:48:13.886Z,18.21
2023-04-29T10:51:01.666Z,18.48
2023-04-29T10:53:30.733Z,18.51
2023-04-29T10:56:05.578Z,18.80
2023-04-29T10:58:39.838Z,19.03
2023-04-29T11:01:08.688Z,19.11
2023-04-29T11:04:01.202Z,18.83
2023-04-29T11:06:54.488Z,18.52
2023-04-29T11:09:26.813Z,18.75
2023-04-29T11:12:04.010Z,18.74
2023-04-29T11:14:44.103Z,18.90
2023-04-29T11:17:17.711Z,19.04
2023-04-29T11:19:52.080Z,19.10
2023-04-29T11:22:24.366Z,19.12
2023-04-29T11:24:57.741Z,19.21
2023-04-29T11:27:37.553Z,19.07
2023-04-29T11:30:07.785Z,18.91
2023-04-29T11:32:40.652Z,18.85
2023-04-29T11:35:17.625Z,19.08
2023-04-29T11:37:47.195Z,18.85
2023-04-29T11:40:17.205Z,18.88
2023-04-29T11:42:49.700Z,18.63
2023-04-29T11:45:19.261Z,18.64
2023-04-29T11:47:48.610Z,18.73
2023-04-29T11:50:20.141Z,18.51
2023-04-29T11:52:49.623Z,18.74
2023-04-29T11:55:19.270Z,18.80
2023-04-29T11:57:50.732Z,18.81
2023-04-29T12:00:19.611Z,18.82
2023-04-29T12:02:48.520Z,19.02
2023-04-29T12:05:19.508Z,18.98
2023-04-29T12:07:51.254Z,18.90
2023-04-29T12:10:21.492Z,19.06
2023-04-29T12:12:49.937Z,19.11
2023-04-29T12:15:18.534Z,19.31
2023-04-29T12:17:47.464Z,19.07
2023-04-29T12:20:16.135Z,19.01
2023-04-29T12:22:44.474Z,18.84
2023-04-29T12:25:13.149Z,19.02
2023-04-29T12:27:44.530Z,19.13
2023-04-29T12:30:13.591Z,18.86
2023-04-29T12:32:42.228Z,18.93
2023-04-29T12:35:18.135Z,19.03
2023-04-29T12:37:51.069Z,19.22
2023-04-29T12:40:20.974Z,19.19
2023-04-29T12:42:49.497Z,19.19
2023-04-29T12:45:32.264Z,19.26
2023-04-29T12:48:01.548Z,19.36
2023-04-29T12:50:34.693Z,19.38
2023-04-29T12:53:07.661Z,19.43
2023-04-29T12:55:37.536Z,19.35
2023-04-29T12:58:06.176Z,19.34
2023-04-29T13:00:35.489Z,19.40
2023-04-29T13:03:04.679Z,19.46
2023-04-29T13:05:33.691Z,19.38
2023-04-29T13:08:02.291Z,19.41
2023-04-29T13:10:31.341Z,19.34
2023-04-29T13:13:00.099Z,19.32
2023-04-29T13:15:28.826Z,19.41
2023-04-29T13:17:59.060Z,19.32
2023-04-29T13:20:28.244Z,19.39
2023-04-29T13:22:56.720Z,19.41
2023-04-29T13:25:25.421Z,19.51
2023-04-29T13:27:53.765Z,19.61
2023-04-29T13:30:22.454Z,19.62
2023-04-29T13:32:55.935Z,19.59
2023-04-29T13:35:27.617Z,19.67
2023-04-29T13:37:56.139Z,19.68
2023-04-29T13:40:27.856Z,19.58
2023-04-29T13:43:04.896Z,19.51
2023-04-29T13:45:41.189Z,19.41
2023-04-29T13:48:32.436Z,19.51
2023-04-29T13:54:10.632Z,19.45
2023-04-29T13:59:37.259Z,19.58
2023-04-29T14:04:13.281Z,19.67
2023-04-29T14:06:44.366Z,19.46
2023-04-29T14:09:12.885Z,19.46
2023-04-29T14:11:41.900Z,19.50
2023-04-29T14:14:10.267Z,19.48
2023-04-29T14:16:39.118Z,19.47
2023-04-29T14:19:07.980Z,19.39
2023-04-29T14:21:36.769Z,19.51
2023-04-29T14:24:05.267Z,19.61
2023-04-29T14:26:34.140Z,19.64
2023-04-29T14:29:02.522Z,19.73
2023-04-29T14:31:35.663Z,19.78
2023-04-29T14:34:04.268Z,19.69
2023-04-29T14:36:33.000Z,19.69
2023-04-29T14:39:01.334Z,19.70
2023-04-29T14:41:29.932Z,19.67
2023-04-29T14:43:58.338Z,19.70
2023-04-29T14:46:29.228Z,19.71
2023-04-29T14:48:57.593Z,19.67
2023-04-29T14:51:27.498Z,19.68
2023-04-29T14:53:55.956Z,19.65
2023-04-29T14:56:24.707Z,19.67
2023-04-29T14:58:53.075Z,19.64
2023-04-29T15:01:21.841Z,19.58
2023-04-29T15:03:50.229Z,19.53
2023-04-29T15:06:18.962Z,19.60
2023-04-29T15:08:47.303Z,19.54
2023-04-29T15:11:16.041Z,19.49
2023-04-29T15:13:44.425Z,19.53
2023-04-29T15:16:13.102Z,19.56
2023-04-29T15:18:44.921Z,19.54
2023-04-29T15:21:14.406Z,19.57
2023-04-29T15:23:42.724Z,19.49
2023-04-29T15:26:11.370Z,19.45
2023-04-29T15:28:39.818Z,19.51
2023-04-29T15:31:08.466Z,19.56
2023-04-29T15:33:36.937Z,19.57
2023-04-29T15:36:07.136Z,19.59
2023-04-29T15:38:35.458Z,19.63
2023-04-29T15:41:04.186Z,19.59
2023-04-29T15:43:33.413Z,19.53
2023-04-29T15:46:02.051Z,19.48
2023-04-29T15:48:30.381Z,19.44
2023-04-29T15:50:59.034Z,19.52
2023-04-29T15:53:27.373Z,19.52
2023-04-29T15:55:56.225Z,19.54
2023-04-29T15:58:24.616Z,19.58
2023-04-29T16:00:53.343Z,19.60
2023-04-29T16:03:21.742Z,19.57
2023-04-29T16:05:51.137Z,19.53
2023-04-29T16:08:19.529Z,19.46
2023-04-29T16:10:49.872Z,19.52
2023-04-29T16:13:18.612Z,19.54
2023-04-29T16:15:47.348Z,19.55
2023-04-29T16:18:17.924Z,19.59
2023-04-29T16:20:46.784Z,19.59
2023-04-29T16:23:15.206Z,19.63
2023-04-29T16:25:43.995Z,19.57
2023-04-29T16:28:12.500Z,19.62
2023-04-29T16:30:41.384Z,19.63
2023-04-29T16:33:09.960Z,19.63
2023-04-29T16:35:39.035Z,19.65
2023-04-29T16:38:07.495Z,19.62
2023-04-29T16:40:36.865Z,19.66
2023-04-29T16:43:05.338Z,19.66
2023-04-29T16:45:34.185Z,19.65
2023-04-29T16:48:03.314Z,19.67
2023-04-29T16:50:32.247Z,19.65
2023-04-29T16:53:01.301Z,19.57
2023-04-29T16:55:33.097Z,19.65
2023-04-29T16:58:01.597Z,19.64
2023-04-29T17:00:30.511Z,19.65
2023-04-29T17:02:59.031Z,19.65
2023-04-29T17:05:28.058Z,19.66
2023-04-29T17:07:56.652Z,19.67
2023-04-29T17:10:25.462Z,19.66
2023-04-29T17:12:54.015Z,19.68
2023-04-29T17:15:22.925Z,19.68
2023-04-29T17:17:51.574Z,19.68
2023-04-29T17:20:20.726Z,19.65
2023-04-29T17:22:49.105Z,19.65
2023-04-29T17:25:18.282Z,19.66
2023-04-29T17:27:46.809Z,19.68
2023-04-29T17:30:15.689Z,19.66
2023-04-29T17:32:44.673Z,19.69
2023-04-29T17:35:13.467Z,19.64
2023-04-29T17:37:41.930Z,19.60
2023-04-29T17:40:11.636Z,19.66
2023-04-29T17:42:40.540Z,19.63
2023-04-29T17:45:10.504Z,19.62
2023-04-29T17:47:38.905Z,19.65
2023-04-29T17:50:08.492Z,19.63
2023-04-29T17:52:37.000Z,19.63
2023-04-29T17:55:06.518Z,19.63
2023-04-29T17:57:35.006Z,19.54
2023-04-29T18:00:05.706Z,19.60
2023-04-29T18:02:34.956Z,19.60
2023-04-29T18:05:04.317Z,19.60
2023-04-29T18:07:32.883Z,19.60
2023-04-29T18:10:01.681Z,19.59
2023-04-29T18:12:30.182Z,19.58
2023-04-29T18:14:58.961Z,19.58
2023-04-29T18:17:27.615Z,19.54
2023-04-29T18:19:56.709Z,19.56
2023-04-29T18:22:25.401Z,19.54
2023-04-29T18:24:54.231Z,19.52
2023-04-29T18:27:22.602Z,19.48
2023-04-29T18:29:51.635Z,19.51
2023-04-29T18:32:20.329Z,19.52
2023-04-29T18:34:49.212Z,19.51
2023-04-29T18:37:17.677Z,19.51
2023-04-29T18:39:46.413Z,19.47
2023-04-29T18:42:14.840Z,19.44
2023-04-29T18:44:43.874Z,19.44
2023-04-29T18:47:12.292Z,19.43
2023-04-29T18:49:41.304Z,19.45
2023-04-29T18:52:09.712Z,19.44
2023-04-29T18:54:38.496Z,19.43
2023-04-29T18:57:07.125Z,19.44
2023-04-29T18:59:37.905Z,19.43
2023-04-29T19:02:06.764Z,19.40
2023-04-29T19:04:36.004Z,19.40
2023-04-29T19:07:06.430Z,19.40
2023-04-29T19:09:35.182Z,19.36
2023-04-29T19:12:05.465Z,19.37
2023-04-29T19:14:34.439Z,19.37
2023-04-29T19:17:02.873Z,19.33
2023-04-29T19:19:31.688Z,19.32
2023-04-29T19:22:01.351Z,19.26
2023-04-29T19:24:29.998Z,19.27
2023-04-29T19:26:58.383Z,19.30
2023-04-29T19:29:27.173Z,19.32
2023-04-29T19:31:55.701Z,19.33
2023-04-29T19:34:24.649Z,19.30
2023-04-29T19:36:53.254Z,19.28
2023-04-29T19:39:21.970Z,19.22
2023-04-29T19:41:50.359Z,19.20
2023-04-29T19:44:19.184Z,19.18
2023-04-29T19:46:51.764Z,19.13
2023-04-29T19:49:20.812Z,19.19
2023-04-29T19:51:50.644Z,19.14
2023-04-29T19:54:19.435Z,19.12
2023-04-29T19:56:47.900Z,19.08
2023-04-29T19:59:17.073Z,19.10
2023-04-29T20:01:45.605Z,19.07
2023-04-29T20:04:14.500Z,19.04
2023-04-29T20:06:43.065Z,19.06
2023-04-29T20:09:11.996Z,19.03
2023-04-29T20:11:40.468Z,19.04
2023-04-29T20:14:09.170Z,19.04
2023-04-29T20:16:37.523Z,19.05
2023-04-29T20:19:06.885Z,18.98
2023-04-29T20:21:35.523Z,18.96
2023-04-29T20:24:04.894Z,18.96
2023-04-29T20:26:33.518Z,18.91
2023-04-29T20:29:02.217Z,18.97
2023-04-29T20:31:30.664Z,18.90
2023-04-29T20:34:00.526Z,18.98
2023-04-29T20:36:28.891Z,19.00
2023-04-29T20:38:57.674Z,18.96
2023-04-29T20:41:29.369Z,18.90
2023-04-29T20:43:59.122Z,18.89
2023-04-29T20:46:29.305Z,18.88
2023-04-29T20:48:58.033Z,18.84
2023-04-29T20:51:27.040Z,18.88
2023-04-29T20:53:55.798Z,18.91
2023-04-29T20:56:24.741Z,18.90
2023-04-29T20:58:53.404Z,18.89
2023-04-29T21:01:21.864Z,18.88
2023-04-29T21:03:50.966Z,18.99
2023-04-29T21:06:19.672Z,19.11
2023-04-29T21:08:48.474Z,19.21
2023-04-29T21:11:16.798Z,19.25
2023-04-29T21:13:50.646Z,19.35
2023-04-29T21:16:19.716Z,19.38
2023-04-29T21:18:48.545Z,19.41
2023-04-29T21:21:16.916Z,19.42
2023-04-29T21:23:45.723Z,19.46
2023-04-29T21:26:15.287Z,19.45
2023-04-29T21:28:44.115Z,19.47
2023-04-29T21:31:16.411Z,19.48
2023-04-29T21:33:45.522Z,19.50
2023-04-29T21:36:14.126Z,19.47
2023-04-29T21:38:46.094Z,19.51
2023-04-29T21:41:27.611Z,19.50
2023-04-29T21:43:58.708Z,19.49
2023-04-29T21:46:29.989Z,19.53
2023-04-29T21:48:58.702Z,19.49
2023-04-29T21:51:27.237Z,19.54
2023-04-29T21:53:56.052Z,19.53
2023-04-29T21:56:24.769Z,19.54
2023-04-29T21:58:53.842Z,19.54
2023-04-29T22:01:40.679Z,19.53
2023-04-29T22:04:09.424Z,19.54
2023-04-29T22:06:37.857Z,19.50
2023-04-29T22:09:09.445Z,19.55
2023-04-29T22:11:37.837Z,19.53
2023-04-29T22:14:06.815Z,19.55
2023-04-29T22:16:36.155Z,19.54
2023-04-29T22:19:05.075Z,19.51
2023-04-29T22:21:33.913Z,19.54
2023-04-29T22:24:02.881Z,19.55
2023-04-29T22:26:31.324Z,19.56
2023-04-29T22:28:59.978Z,19.56
2023-04-29T22:31:28.407Z,19.56
2023-04-29T22:33:57.181Z,19.51
2023-04-29T22:36:25.532Z,19.57
2023-04-29T22:38:54.177Z,19.56
2023-04-29T22:41:22.528Z,19.56
2023-04-29T22:43:57.695Z,19.57
2023-04-29T22:46:26.394Z,19.50
2023-04-29T22:48:55.247Z,19.55
2023-04-29T22:51:23.607Z,19.46
2023-04-29T22:53:52.520Z,19.57
2023-04-29T22:56:21.119Z,19.53
2023-04-29T22:58:50.252Z,19.57
2023-04-29T23:01:18.558Z,19.57
2023-04-29T23:03:47.318Z,19.57
2023-04-29T23:06:15.653Z,19.57
2023-04-29T23:08:44.815Z,19.56
2023-04-29T23:11:13.462Z,19.44
2023-04-29T23:13:42.133Z,19.57
2023-04-29T23:16:11.124Z,19.57
2023-04-29T23:18:39.945Z,19.58
2023-04-29T23:21:08.302Z,19.57
2023-04-29T23:23:36.928Z,19.56
2023-04-29T23:26:05.505Z,19.52
2023-04-29T23:28:34.389Z,19.58
2023-04-29T23:31:02.805Z,19.57
2023-04-29T23:33:31.789Z,19.53
2023-04-29T23:36:00.138Z,19.57
2023-04-29T23:38:29.061Z,19.58
2023-04-29T23:40:57.471Z,19.59
2023-04-29T23:43:26.192Z,19.59
2023-04-29T23:45:54.500Z,19.58
2023-04-29T23:48:23.086Z,19.56
2023-04-29T23:50:51.377Z,19.58
2023-04-29T23:53:19.976Z,19.59
2023-04-29T23:55:49.848Z,19.58
2023-04-29T23:58:18.431Z,19.58
